Time;durP1;ratioP1;P1;durP2;ratioP2;P2;SDS_P1;SDS_P2;PMS_P1;PMS_P2;Temp;Humidity;BMP_temperature;BMP_pressure;BME280_temperature;BME280_humidity;BME280_pressure;Samples;Min_cycle;Max_cycle;Signal;HPM_P1;HPM_P2
2023/06/09 00:00:11;;;;;;;7.07;3.75;;;;;;;18.35;60.10;101360.38;5032452;28;20318;-81
2023/06/09 00:02:37;;;;;;;;;;;;;;;18.48;58.03;101368.03;5032687;28;20034;-82
2023/06/09 00:05:02;;;;;;;9.65;4.20;;;;;;;18.33;59.88;101369.59;5028133;28;19917;-82
2023/06/09 00:07:29;;;;;;;10.77;4.30;;;;;;;18.24;59.72;101364.16;5031210;28;20052;-81
2023/06/09 00:09:54;;;;;;;11.10;4.18;;;;;;;18.29;60.23;101361.00;5036178;28;20480;-81
2023/06/09 00:12:20;;;;;;;9.80;4.65;;;;;;;18.27;59.84;101371.09;5036273;28;20020;-81
2023/06/09 00:14:45;;;;;;;12.45;4.57;;;;;;;18.21;59.79;101364.47;5035972;28;20026;-81
2023/06/09 00:17:10;;;;;;;9.82;4.38;;;;;;;18.18;60.08;101366.63;5036382;28;20022;-82
2023/06/09 00:19:37;;;;;;;9.02;3.88;;;;;;;18.14;60.26;101376.00;5033661;28;20033;-82
2023/06/09 00:22:03;;;;;;;9.40;3.65;;;;;;;18.12;59.83;101366.25;5032770;28;20050;-82
2023/06/09 00:24:28;;;;;;;9.80;3.78;;;;;;;18.04;60.25;101363.47;5027992;28;20022;-82
2023/06/09 00:26:53;;;;;;;7.78;4.15;;;;;;;17.98;60.55;101357.88;5032119;28;20472;-82
2023/06/09 00:29:22;;;;;;;10.85;4.30;;;;;;;17.92;60.63;101359.34;5024450;28;20108;-82
2023/06/09 00:31:47;;;;;;;8.03;4.20;;;;;;;17.90;60.71;101364.00;5033355;28;20467;-81
2023/06/09 00:34:13;;;;;;;7.63;4.28;;;;;;;17.86;60.59;101359.91;5032857;28;20220;-81
2023/06/09 00:36:39;;;;;;;11.10;4.93;;;;;;;17.76;60.38;101352.75;5031781;28;20017;-81
2023/06/09 00:39:05;;;;;;;13.90;4.60;;;;;;;17.71;60.59;101356.91;5033276;28;20120;-81
2023/06/09 00:41:35;;;;;;;12.70;4.68;;;;;;;17.71;60.72;101354.22;5027478;28;20458;-81
2023/06/09 00:44:00;;;;;;;9.07;4.13;;;;;;;17.75;60.42;101364.53;5028895;28;20021;-82
2023/06/09 00:46:25;;;;;;;10.95;4.50;;;;;;;17.72;60.54;101356.75;5031221;28;20398;-82
2023/06/09 00:48:51;;;;;;;8.75;4.38;;;;;;;17.66;60.74;101359.22;5032968;28;20442;-82
2023/06/09 00:51:16;;;;;;;9.45;4.40;;;;;;;17.61;60.44;101356.97;5031461;28;20096;-82
2023/06/09 00:53:42;;;;;;;11.80;4.50;;;;;;;17.60;60.65;101357.13;5031780;28;20034;-81
2023/06/09 00:56:07;;;;;;;8.35;4.15;;;;;;;17.56;60.26;101356.56;5029286;28;20056;-82
2023/06/09 00:58:33;;;;;;;9.70;4.20;;;;;;;17.46;60.50;101343.19;5036172;28;20533;-82
2023/06/09 01:00:59;;;;;;;9.85;4.25;;;;;;;17.46;60.51;101350.41;5028130;28;20052;-82
2023/06/09 01:03:26;;;;;;;12.05;4.53;;;;;;;17.37;61.04;101344.94;5032144;28;20045;-80
2023/06/09 01:06:02;;;;;;;7.53;4.00;;;;;;;17.36;60.77;101347.78;5031874;28;20029;-81
2023/06/09 01:08:36;;;;;;;10.02;4.25;;;;;;;17.36;60.57;101348.63;5036831;28;20025;-81
2023/06/09 01:11:27;;;;;;;11.02;3.95;;;;;;;17.22;60.96;101326.78;5035038;28;20069;-81
2023/06/09 01:14:13;;;;;;;8.50;4.30;;;;;;;17.31;60.65;101350.91;5028438;28;20018;-81
2023/06/09 01:17:02;;;;;;;9.23;4.28;;;;;;;17.26;60.76;101336.25;5031640;28;20030;-81
2023/06/09 01:19:32;;;;;;;10.65;4.63;;;;;;;17.20;61.09;101340.38;5039431;28;20026;-82
2023/06/09 01:22:29;;;;;;;9.77;4.20;;;;;;;17.19;60.84;101342.22;5040030;28;20105;-82
2023/06/09 01:25:31;;;;;;;9.90;4.95;;;;;;;17.16;60.93;101333.63;5029321;28;20046;-82
2023/06/09 01:27:59;;;;;;;11.27;4.50;;;;;;;17.13;60.96;101341.97;5034173;28;20060;-82
2023/06/09 01:30:32;;;;;;;11.93;4.50;;;;;;;17.02;61.03;101333.13;5032259;28;20021;-82
2023/06/09 01:32:59;;;;;;;11.27;4.50;;;;;;;17.02;61.15;101332.28;5041909;28;20061;-82
2023/06/09 01:35:26;;;;;;;11.77;4.97;;;;;;;16.93;61.52;101325.09;5049743;28;20060;-81
2023/06/09 01:37:54;;;;;;;8.00;3.92;;;;;;;16.94;61.39;101332.16;5043763;28;20029;-82
2023/06/09 01:40:20;;;;;;;9.85;4.95;;;;;;;16.94;61.92;101338.38;5040201;28;20092;-81
2023/06/09 01:42:45;;;;;;;9.23;4.30;;;;;;;16.91;61.92;101338.66;5037856;28;20113;-82
2023/06/09 01:45:10;;;;;;;9.80;4.90;;;;;;;16.89;61.60;101337.13;5038057;28;20050;-81
2023/06/09 01:47:36;;;;;;;11.73;4.40;;;;;;;16.81;62.01;101327.94;5035857;28;20703;-81
2023/06/09 01:50:13;;;;;;;10.75;4.65;;;;;;;16.81;61.86;101335.13;5038149;28;20033;-81
2023/06/09 01:52:51;;;;;;;8.27;4.35;;;;;;;16.75;62.08;101328.53;5036486;28;20029;-80
2023/06/09 01:55:34;;;;;;;8.20;4.35;;;;;;;16.64;61.86;101313.44;5033528;28;20034;-82
2023/06/09 01:58:08;;;;;;;9.77;4.75;;;;;;;16.74;62.30;101334.03;5033704;28;20030;-82
2023/06/09 02:00:34;;;;;;;6.78;4.25;;;;;;;16.72;62.33;101336.00;5035149;28;20026;-82
2023/06/09 02:03:00;;;;;;;12.73;4.80;;;;;;;16.67;62.28;101328.41;5035091;28;20036;-82
2023/06/09 02:05:28;;;;;;;11.80;4.75;;;;;;;16.66;62.46;101326.72;5037238;28;20021;-81
2023/06/09 02:07:57;;;;;;;12.38;4.53;;;;;;;16.61;62.81;101335.19;5032651;28;20073;-81
2023/06/09 02:10:25;;;;;;;11.50;4.47;;;;;;;16.61;63.10;101335.19;5034441;28;20029;-81
2023/06/09 02:12:51;;;;;;;11.68;4.93;;;;;;;16.57;63.17;101327.56;5033751;28;20035;-81
2023/06/09 02:15:16;;;;;;;13.63;4.97;;;;;;;16.45;63.14;101302.75;5049716;28;20021;-81
2023/06/09 02:17:42;;;;;;;11.48;4.75;;;;;;;16.50;63.18;101315.75;5036129;28;20060;-81
2023/06/09 02:20:09;;;;;;;9.77;4.68;;;;;;;16.45;63.10;101314.34;5038937;28;20072;-82
2023/06/09 02:22:37;;;;;;;9.30;4.55;;;;;;;16.36;63.51;101307.16;5052299;28;20028;-82
2023/06/09 02:25:04;;;;;;;10.88;5.05;;;;;;;16.32;63.60;101304.91;5032002;28;20033;-81
2023/06/09 02:27:29;;;;;;;11.50;5.10;;;;;;;16.36;63.63;101315.22;5035930;28;20040;-82
2023/06/09 02:29:55;;;;;;;14.10;5.03;;;;;;;16.30;63.69;101312.25;5036090;28;20026;-81
2023/06/09 02:32:20;;;;;;;13.02;4.85;;;;;;;16.32;63.81;101318.31;5037186;28;20080;-81
2023/06/09 02:34:45;;;;;;;11.80;5.25;;;;;;;16.30;63.78;101314.94;5036763;28;20026;-81
2023/06/09 02:37:11;;;;;;;10.98;5.60;;;;;;;16.26;63.86;101311.72;5029933;28;20033;-81
2023/06/09 02:39:36;;;;;;;12.65;5.38;;;;;;;16.20;64.21;101302.38;5031875;28;20026;-81
2023/06/09 02:42:02;;;;;;;9.30;4.55;;;;;;;16.21;64.51;101311.28;5029304;28;20085;-81
2023/06/09 02:44:28;;;;;;;9.60;5.05;;;;;;;16.12;64.40;101301.41;5032922;28;20026;-81
2023/06/09 02:46:54;;;;;;;9.70;4.97;;;;;;;16.13;64.30;101308.47;5038199;28;20038;-81
2023/06/09 02:49:19;;;;;;;11.77;4.80;;;;;;;16.12;64.72;101314.81;5030468;28;20034;-81
2023/06/09 02:51:45;;;;;;;13.17;4.83;;;;;;;16.12;64.70;101306.78;5034746;28;20091;-81
2023/06/09 02:54:10;;;;;;;9.90;4.68;;;;;;;16.09;64.58;101311.44;5031362;28;20284;-81
2023/06/09 02:56:35;;;;;;;14.23;5.22;;;;;;;16.06;65.18;101314.41;5037371;28;20025;-81
2023/06/09 02:59:02;;;;;;;8.85;5.28;;;;;;;16.01;65.34;101310.47;5033995;28;20049;-81
2023/06/09 03:01:28;;;;;;;8.88;5.13;;;;;;;15.94;65.38;101306.63;5037373;28;20027;-81
2023/06/09 03:03:53;;;;;;;14.93;5.30;;;;;;;15.89;65.70;101299.88;5032275;28;20089;-81
2023/06/09 03:06:19;;;;;;;11.27;4.95;;;;;;;15.88;65.88;101308.06;5035681;28;20022;-81
2023/06/09 03:08:45;;;;;;;12.70;5.15;;;;;;;15.86;66.20;101310.88;5036240;28;20037;-81
2023/06/09 03:11:10;;;;;;;12.20;4.85;;;;;;;15.84;66.12;101312.03;5034585;28;20034;-81
2023/06/09 03:13:36;;;;;;;10.35;5.38;;;;;;;15.85;66.37;101311.00;5034162;28;20030;-81
2023/06/09 03:16:04;;;;;;;12.10;5.47;;;;;;;15.77;66.83;101311.72;5039055;28;20089;-81
2023/06/09 03:18:30;;;;;;;15.30;5.33;;;;;;;15.81;67.06;101325.69;5040116;28;20033;-81
2023/06/09 03:21:01;;;;;;;12.88;5.78;;;;;;;15.75;67.05;101328.88;5043022;28;20076;-81
2023/06/09 03:23:26;;;;;;;10.77;5.38;;;;;;;15.70;67.34;101319.44;5035183;28;20034;-81
2023/06/09 03:25:52;;;;;;;14.02;5.93;;;;;;;15.62;67.28;101316.63;5039817;28;20506;-81
2023/06/09 03:28:18;;;;;;;12.38;5.03;;;;;;;15.65;67.79;101326.19;5043112;28;20123;-81
2023/06/09 03:30:43;;;;;;;12.07;5.35;;;;;;;15.63;67.74;101325.50;5042213;28;20114;-81
2023/06/09 03:33:11;;;;;;;11.38;5.43;;;;;;;15.56;68.19;101319.00;5037499;28;20026;-81
2023/06/09 03:35:36;;;;;;;11.32;5.50;;;;;;;15.59;67.98;101318.69;5036823;28;20029;-81
2023/06/09 03:38:01;;;;;;;12.93;6.15;;;;;;;15.54;68.06;101324.50;5034963;28;20029;-81
2023/06/09 03:40:26;;;;;;;12.43;5.50;;;;;;;15.51;68.38;101320.25;5040080;28;20041;-81
2023/06/09 03:42:52;;;;;;;15.23;5.75;;;;;;;15.47;68.76;101313.50;5035607;28;20307;-81
2023/06/09 03:45:17;;;;;;;12.57;5.63;;;;;;;15.44;68.72;101305.72;5041367;28;20035;-81
2023/06/09 03:47:42;;;;;;;13.73;5.72;;;;;;;15.48;69.06;101325.03;5040389;28;20301;-81
2023/06/09 03:50:08;;;;;;;12.60;5.47;;;;;;;15.43;69.14;101343.34;5041729;28;20044;-81
2023/06/09 03:52:33;;;;;;;13.75;5.80;;;;;;;15.35;68.91;101330.63;5038288;28;20451;-81
2023/06/09 03:54:58;;;;;;;16.73;6.15;;;;;;;15.34;69.70;101340.50;5036184;28;20025;-82
2023/06/09 03:57:24;;;;;;;10.15;5.40;;;;;;;15.36;69.62;101343.03;5041563;28;20033;-81
2023/06/09 03:59:50;;;;;;;18.70;5.82;;;;;;;15.38;69.21;101343.75;5040129;28;20038;-82
2023/06/09 04:02:18;;;;;;;16.63;6.07;;;;;;;15.34;69.58;101335.16;5038150;28;20044;-82
2023/06/09 04:04:44;;;;;;;12.75;5.38;;;;;;;15.31;69.64;101340.78;5036380;28;20433;-82
2023/06/09 04:07:11;;;;;;;14.27;5.75;;;;;;;15.29;69.95;101333.88;5039705;28;20026;-80
2023/06/09 04:09:36;;;;;;;8.85;5.32;;;;;;;15.28;69.63;101342.88;5041389;28;20032;-81
2023/06/09 04:12:01;;;;;;;14.73;6.38;;;;;;;15.30;69.68;101339.06;5035059;28;20056;-81
2023/06/09 04:14:27;;;;;;;14.35;6.57;;;;;;;15.30;70.12;101338.22;5041005;28;20030;-81
2023/06/09 04:16:52;;;;;;;17.88;6.53;;;;;;;15.23;70.31;101337.09;5038566;28;20022;-81
2023/06/09 04:19:18;;;;;;;13.38;6.30;;;;;;;15.26;70.33;101340.34;5040432;28;20052;-81
2023/06/09 04:21:43;;;;;;;11.27;6.28;;;;;;;15.29;70.42;101349.94;5036952;28;20054;-81
2023/06/09 04:24:10;;;;;;;12.82;6.45;;;;;;;15.27;70.81;101352.75;5041599;28;20044;-80
2023/06/09 04:26:37;;;;;;;13.82;6.90;;;;;;;15.26;70.87;101347.53;5040342;28;20022;-81
2023/06/09 04:29:03;;;;;;;12.38;6.28;;;;;;;15.25;71.15;101348.50;5041549;28;20033;-81
2023/06/09 04:31:33;;;;;;;12.68;6.53;;;;;;;15.28;70.98;101348.22;5043254;28;20025;-81
2023/06/09 04:34:05;;;;;;;13.05;6.10;;;;;;;15.29;71.26;101358.81;5043519;28;20033;-81
2023/06/09 04:36:32;;;;;;;13.52;6.97;;;;;;;15.30;70.56;101351.59;5047775;28;20034;-81
2023/06/09 04:38:58;;;;;;;14.90;7.10;;;;;;;15.31;70.99;101347.97;5044710;28;20464;-80
2023/06/09 04:41:27;;;;;;;13.63;6.60;;;;;;;15.35;71.34;101344.88;5030400;28;20034;-81
2023/06/09 04:43:53;;;;;;;14.85;7.10;;;;;;;15.41;71.08;101359.53;5045741;28;20033;-81
2023/06/09 04:46:24;;;;;;;13.38;7.03;;;;;;;15.43;71.20;101351.38;5040395;28;20041;-80
2023/06/09 04:48:51;;;;;;;14.15;6.93;;;;;;;15.51;71.18;101354.22;5045801;28;20030;-80
2023/06/09 04:51:17;;;;;;;19.23;7.72;;;;;;;15.58;70.96;101357.19;5050341;28;20045;-81
2023/06/09 04:53:42;;;;;;;15.10;7.20;;;;;;;15.63;71.05;101350.44;5049177;28;20029;-81
2023/06/09 04:56:08;;;;;;;17.30;7.68;;;;;;;15.66;70.60;101355.50;5045236;28;20085;-81
2023/06/09 04:58:34;;;;;;;13.75;7.40;;;;;;;15.73;70.50;101356.63;5050693;28;20044;-81
2023/06/09 05:00:59;;;;;;;15.05;7.60;;;;;;;15.77;70.68;101362.63;5051716;28;20033;-81
2023/06/09 05:03:25;;;;;;;16.42;8.25;;;;;;;15.76;70.30;101352.88;5045563;28;20022;-81
2023/06/09 05:05:50;;;;;;;11.50;7.10;;;;;;;15.88;70.50;101354.44;5048705;28;20021;-81
2023/06/09 05:08:15;;;;;;;15.20;7.13;;;;;;;15.96;70.46;101353.75;5046705;28;20033;-81
2023/06/09 05:10:40;;;;;;;14.88;8.00;;;;;;;15.96;69.85;101342.19;5045231;28;20443;-80
2023/06/09 05:13:06;;;;;;;12.93;7.60;;;;;;;16.16;69.75;101361.78;5044094;28;20479;-80
2023/06/09 05:15:31;;;;;;;14.32;7.65;;;;;;;16.23;69.69;101357.56;5048186;28;20115;-81
2023/06/09 05:17:57;;;;;;;15.30;6.77;;;;;;;16.25;69.58;101358.25;5043772;28;20049;-81
2023/06/09 05:20:23;;;;;;;14.85;7.22;;;;;;;16.25;69.42;101351.06;5041901;28;20328;-81
2023/06/09 05:22:48;;;;;;;14.18;7.03;;;;;;;16.33;69.22;101354.88;5029395;28;20033;-81
2023/06/09 05:25:14;;;;;;;16.35;7.40;;;;;;;16.43;69.28;101359.22;5040853;28;20043;-81
2023/06/09 05:27:39;;;;;;;17.17;7.90;;;;;;;16.53;69.36;101367.25;5039848;28;20105;-81
2023/06/09 05:30:05;;;;;;;16.67;7.60;;;;;;;16.62;68.90;101373.56;5040014;28;20049;-82
2023/06/09 05:32:32;;;;;;;15.95;7.60;;;;;;;16.74;68.86;101355.50;5039362;28;20025;-82
2023/06/09 05:34:57;;;;;;;17.60;7.43;;;;;;;16.94;68.04;101367.88;5033809;28;20033;-82
2023/06/09 05:37:22;;;;;;;11.50;7.22;;;;;;;17.13;67.98;101364.28;5030940;28;20017;-82
2023/06/09 05:39:47;;;;;;;13.15;7.28;;;;;;;17.28;67.06;101367.31;5041918;28;20033;-81
2023/06/09 05:42:13;;;;;;;15.53;7.67;;;;;;;17.44;66.78;101374.75;5030864;28;20025;-81
2023/06/09 05:44:38;;;;;;;13.65;7.25;;;;;;;17.63;66.46;101364.88;5040742;28;20818;-81
2023/06/09 05:47:04;;;;;;;15.93;7.45;;;;;;;17.84;65.48;101360.06;5039021;28;20592;-81
2023/06/09 05:49:30;;;;;;;14.77;7.53;;;;;;;18.09;64.75;101368.41;5032978;28;20042;-81
2023/06/09 05:51:55;;;;;;;16.00;6.78;;;;;;;18.18;64.24;101359.38;5040789;28;20026;-81
2023/06/09 05:54:21;;;;;;;16.52;7.97;;;;;;;18.30;63.61;101362.69;5037170;28;20033;-81
2023/06/09 05:56:48;;;;;;;18.58;7.53;;;;;;;18.47;63.36;101361.00;5035949;28;20021;-82
2023/06/09 05:59:14;;;;;;;13.95;7.15;;;;;;;18.52;63.74;101358.66;5034688;28;20061;-82
2023/06/09 06:01:41;;;;;;;14.77;7.65;;;;;;;18.55;63.32;101357.50;5036515;28;20022;-82
2023/06/09 06:04:07;;;;;;;16.77;7.45;;;;;;;18.76;63.32;101349.06;5036645;28;20022;-82
2023/06/09 06:06:32;;;;;;;13.25;7.35;;;;;;;18.77;63.22;101354.28;5039310;28;20037;-81
2023/06/09 06:08:57;;;;;;;14.20;7.53;;;;;;;18.93;62.75;101363.50;5041165;28;20472;-81
2023/06/09 06:11:23;;;;;;;13.50;7.67;;;;;;;19.25;62.06;101354.72;5032876;28;20275;-81
2023/06/09 06:13:48;;;;;;;16.50;7.40;;;;;;;19.32;61.55;101357.63;5036126;28;20289;-81
2023/06/09 06:16:13;;;;;;;15.88;7.47;;;;;;;19.65;61.06;101361.28;5040095;28;20411;-82
2023/06/09 06:18:39;;;;;;;12.55;7.57;;;;;;;19.78;61.02;101341.94;5042393;28;20029;-82
2023/06/09 06:21:05;;;;;;;14.70;7.70;;;;;;;19.94;59.70;101350.03;5042438;28;20042;-82
2023/06/09 06:23:31;;;;;;;15.27;7.95;;;;;;;20.15;59.30;101357.66;5041630;28;20032;-81
2023/06/09 06:25:56;;;;;;;16.55;8.23;;;;;;;20.40;58.88;101357.66;5031218;28;20088;-81
2023/06/09 06:28:22;;;;;;;16.37;7.93;;;;;;;20.52;58.21;101358.97;5033630;28;20487;-81
2023/06/09 06:30:47;;;;;;;17.77;8.02;;;;;;;20.62;58.40;101361.50;5041719;28;20280;-82
2023/06/09 06:33:13;;;;;;;14.48;7.80;;;;;;;20.74;58.10;101358.47;5037494;28;20070;-82
2023/06/09 06:35:39;;;;;;;15.45;7.80;;;;;;;20.89;57.54;101356.75;5032728;28;20026;-82
2023/06/09 06:38:04;;;;;;;17.70;8.25;;;;;;;21.03;57.36;101361.44;5031857;28;20030;-81
2023/06/09 06:40:30;;;;;;;14.30;8.38;;;;;;;21.27;57.03;101354.25;5041834;28;20116;-81
2023/06/09 06:42:55;;;;;;;15.10;8.30;;;;;;;21.55;56.68;101361.91;5037461;28;20037;-82
2023/06/09 06:45:20;;;;;;;15.43;7.50;;;;;;;21.81;55.81;101354.31;5036573;28;20067;-81
2023/06/09 06:47:49;;;;;;;19.60;7.82;;;;;;;22.06;55.17;101358.72;5032540;28;20030;-82
2023/06/09 06:50:14;;;;;;;15.43;8.05;;;;;;;22.26;54.29;101345.53;5043127;28;20464;-82
2023/06/09 06:52:40;;;;;;;16.80;8.13;;;;;;;22.55;53.17;101350.22;5039165;28;20049;-82
2023/06/09 06:55:08;;;;;;;15.90;8.13;;;;;;;22.68;52.47;101353.13;5034757;28;20048;-82
2023/06/09 06:57:38;;;;;;;13.97;8.10;;;;;;;22.95;52.48;101353.50;5038932;28;20040;-82
2023/06/09 07:00:17;;;;;;;14.63;7.88;;;;;;;23.09;51.91;101349.13;5035312;28;20272;-82
2023/06/09 07:02:47;;;;;;;16.67;8.07;;;;;;;23.40;52.81;101348.91;5033790;28;20030;-82
2023/06/09 07:05:13;;;;;;;21.40;7.93;;;;;;;23.62;50.51;101354.38;5032517;28;20033;-81
2023/06/09 07:07:38;;;;;;;12.95;8.20;;;;;;;23.79;49.97;101353.09;5032281;28;20432;-80
2023/06/09 07:10:04;;;;;;;13.93;8.10;;;;;;;23.95;49.85;101353.91;5036973;28;20036;-81
2023/06/09 07:12:31;;;;;;;13.82;7.78;;;;;;;24.18;48.58;101346.41;5025205;28;20040;-81
2023/06/09 07:14:57;;;;;;;15.13;7.50;;;;;;;24.41;48.24;101360.78;5038340;28;20590;-81
2023/06/09 07:17:23;;;;;;;14.18;8.23;;;;;;;24.48;47.74;101353.53;5038679;28;20045;-82
2023/06/09 07:19:48;;;;;;;18.38;8.35;;;;;;;24.75;47.35;101351.88;5030930;28;20022;-81
2023/06/09 07:22:13;;;;;;;16.87;8.20;;;;;;;24.91;48.41;101362.44;5035931;28;20040;-81
2023/06/09 07:24:38;;;;;;;12.90;7.80;;;;;;;24.92;46.61;101355.94;5037870;28;20330;-82
2023/06/09 07:27:05;;;;;;;13.38;7.22;;;;;;;25.25;46.57;101360.72;5026201;28;20368;-81
2023/06/09 07:29:30;;;;;;;16.98;7.68;;;;;;;25.35;46.38;101357.66;5040055;28;20059;-81
2023/06/09 07:31:56;;;;;;;15.65;7.22;;;;;;;25.63;45.80;101360.25;5039063;28;20045;-81
2023/06/09 07:34:22;;;;;;;14.35;7.40;;;;;;;25.88;44.88;101359.69;5030979;28;20078;-82
2023/06/09 07:36:50;;;;;;;14.77;7.60;;;;;;;26.11;44.88;101358.47;5030617;28;20033;-81
2023/06/09 07:39:17;;;;;;;12.73;7.13;;;;;;;26.27;44.21;101365.41;5038991;28;20542;-82
2023/06/09 07:41:42;;;;;;;15.38;7.65;;;;;;;26.45;43.76;101362.06;5033705;28;20025;-81
2023/06/09 07:44:08;;;;;;;15.02;8.20;;;;;;;26.64;43.13;101357.66;5034634;28;20037;-82
2023/06/09 07:46:33;;;;;;;12.75;7.35;;;;;;;26.88;42.62;101359.72;5033611;28;20036;-82
2023/06/09 07:48:59;;;;;;;12.57;7.68;;;;;;;26.86;42.05;101353.66;5035633;28;20030;-81
2023/06/09 07:51:26;;;;;;;13.43;7.20;;;;;;;27.07;42.80;101357.97;5034562;28;20554;-81
2023/06/09 07:53:51;;;;;;;17.27;7.80;;;;;;;27.14;41.23;101361.50;5036656;28;20083;-82
2023/06/09 07:56:17;;;;;;;14.90;7.57;;;;;;;27.48;40.98;101355.97;5034343;28;20025;-81
2023/06/09 07:58:42;;;;;;;14.02;6.70;;;;;;;27.79;40.84;101359.75;5038003;28;20491;-81
2023/06/09 08:01:07;;;;;;;9.20;6.57;;;;;;;28.06;40.45;101352.25;5037844;28;20064;-82
2023/06/09 08:03:34;;;;;;;13.00;7.05;;;;;;;28.11;39.55;101352.44;5037836;28;20302;-82
2023/06/09 08:06:00;;;;;;;12.13;7.25;;;;;;;28.33;39.11;101344.69;5037143;28;20022;-82
2023/06/09 08:08:26;;;;;;;12.55;7.10;;;;;;;28.57;38.88;101348.47;5024372;28;20040;-82
2023/06/09 08:10:51;;;;;;;8.50;5.80;;;;;;;28.65;38.20;101341.88;5038763;28;20025;-82
2023/06/09 08:13:17;;;;;;;11.38;6.25;;;;;;;28.85;37.95;101349.06;5019335;28;20049;-81
2023/06/09 08:15:44;;;;;;;9.95;6.18;;;;;;;29.07;37.72;101346.69;5027668;28;20026;-82
2023/06/09 08:18:09;;;;;;;12.38;6.13;;;;;;;29.13;37.11;101343.03;5049288;28;20032;-82
2023/06/09 08:20:35;;;;;;;11.43;5.82;;;;;;;29.29;36.87;101339.69;5051238;28;20045;-82
2023/06/09 08:23:00;;;;;;;13.30;5.77;;;;;;;29.44;36.45;101341.19;5051158;28;20029;-82
2023/06/09 08:25:25;;;;;;;12.47;6.17;;;;;;;29.48;35.37;101339.69;5046610;28;20026;-82
2023/06/09 08:27:50;;;;;;;13.20;6.22;;;;;;;29.65;34.68;101343.41;5041317;28;20033;-81
2023/06/09 08:30:16;;;;;;;8.33;5.10;;;;;;;30.04;34.51;101335.69;5039735;28;20033;-82
2023/06/09 08:32:41;;;;;;;12.30;5.72;;;;;;;30.34;35.44;101331.19;5033233;28;20464;-82
2023/06/09 08:35:08;;;;;;;9.38;5.80;;;;;;;30.44;33.74;101324.09;5027598;28;20037;-82
2023/06/09 08:37:33;;;;;;;8.05;4.95;;;;;;;30.69;33.79;101322.97;5036094;28;20036;-81
2023/06/09 08:40:00;;;;;;;9.95;5.43;;;;;;;30.90;33.81;101326.16;5035774;28;20050;-82
2023/06/09 08:42:30;;;;;;;12.35;5.57;;;;;;;31.02;32.74;101329.72;5036609;28;20072;-81
2023/06/09 08:45:01;;;;;;;8.40;5.25;;;;;;;31.11;32.14;101332.94;5030950;28;20425;-81
2023/06/09 08:47:27;;;;;;;9.68;5.18;;;;;;;31.11;31.66;101324.69;5035019;28;20037;-82
2023/06/09 08:49:57;;;;;;;12.48;4.88;;;;;;;31.35;31.81;101333.69;5031407;28;20045;-82
2023/06/09 08:52:23;;;;;;;7.60;4.70;;;;;;;31.49;31.18;101331.47;5035655;28;20067;-82
2023/06/09 08:54:50;;;;;;;8.10;4.72;;;;;;;31.62;31.76;101333.13;5035328;28;20115;-83
2023/06/09 08:57:16;;;;;;;12.75;6.15;;;;;;;31.67;30.60;101331.28;5024567;28;20022;-83
2023/06/09 08:59:44;;;;;;;16.75;5.05;;;;;;;31.66;31.54;101321.41;5035398;28;20116;-84
2023/06/09 09:02:10;;;;;;;11.00;5.40;;;;;;;31.85;30.95;101323.91;5035839;28;20028;-83
2023/06/09 09:04:38;;;;;;;10.45;5.35;;;;;;;32.01;30.40;101323.09;5034902;28;20426;-82
2023/06/09 09:07:08;;;;;;;6.72;4.82;;;;;;;32.12;30.17;101323.28;5029614;28;20036;-81
2023/06/09 09:09:33;;;;;;;10.10;5.50;;;;;;;32.06;29.81;101317.72;5036402;28;20472;-83
2023/06/09 09:11:59;;;;;;;8.02;4.95;;;;;;;32.36;30.39;101318.41;5039895;28;20031;-84
2023/06/09 09:14:25;;;;;;;9.75;6.10;;;;;;;32.41;30.10;101324.00;5036152;28;20017;-81
2023/06/09 09:16:50;;;;;;;9.63;5.75;;;;;;;32.40;29.75;101320.41;5032049;28;20538;-83
2023/06/09 09:19:26;;;;;;;8.73;5.60;;;;;;;32.58;30.10;101316.56;5039824;28;20057;-83
2023/06/09 09:22:01;;;;;;;8.68;5.50;;;;;;;32.52;29.45;101306.56;5029681;28;20137;-83
2023/06/09 09:24:29;;;;;;;10.07;5.68;;;;;;;32.56;29.92;101285.75;5037090;28;20644;-83
2023/06/09 09:26:58;;;;;;;10.07;6.05;;;;;;;32.68;30.20;101309.59;5041233;28;20025;-83
2023/06/09 09:29:30;;;;;;;11.13;6.50;;;;;;;32.58;29.39;101307.50;5027835;28;20056;-83
2023/06/09 09:31:58;;;;;;;8.82;5.32;;;;;;;32.89;29.98;101302.41;5036351;28;20033;-83
2023/06/09 09:34:30;;;;;;;9.13;4.95;;;;;;;33.26;30.01;101299.00;5039425;28;20058;-83
2023/06/09 09:36:56;;;;;;;6.18;4.97;;;;;;;33.15;27.90;101292.53;5035284;28;20045;-84
2023/06/09 09:39:22;;;;;;;12.85;5.28;;;;;;;33.32;27.96;101300.72;5038277;28;20021;-83
2023/06/09 09:42:10;;;;;;;8.38;5.35;;;;;;;33.77;29.48;101302.28;5038157;28;20025;-81
2023/06/09 09:44:43;;;;;;;10.00;5.03;;;;;;;33.98;28.64;101295.03;5034364;28;20483;-83
2023/06/09 09:47:12;;;;;;;11.75;5.10;;;;;;;33.83;27.22;101292.97;5031166;28;20163;-83
2023/06/09 09:49:48;;;;;;;7.47;5.10;;;;;;;33.86;28.30;101291.63;5033949;28;20073;-83
2023/06/09 09:52:14;;;;;;;11.43;6.05;;;;;;;33.79;27.29;101288.25;5035960;28;20030;-82
2023/06/09 09:54:39;;;;;;;11.68;5.43;;;;;;;34.00;27.77;101292.81;5037196;28;20028;-82
2023/06/09 09:57:07;;;;;;;13.45;5.55;;;;;;;34.37;28.09;101285.66;5031885;28;20377;-81
2023/06/09 09:59:32;;;;;;;9.85;5.50;;;;;;;34.37;26.92;101286.47;5031299;28;20036;-80
2023/06/09 10:01:57;;;;;;;10.20;4.63;;;;;;;34.25;26.12;101285.88;5035795;28;20029;-82
2023/06/09 10:04:27;;;;;;;9.27;4.35;;;;;;;34.53;25.99;101281.06;5035732;28;20032;-82
2023/06/09 10:07:01;;;;;;;9.65;5.00;;;;;;;34.44;25.89;101273.31;5039249;28;20029;-82
2023/06/09 10:09:27;;;;;;;8.60;5.10;;;;;;;34.46;25.89;101276.63;5032940;28;20030;-82
2023/06/09 10:11:54;;;;;;;8.50;4.32;;;;;;;34.76;25.14;101271.56;5035265;28;20029;-82
2023/06/09 10:14:20;;;;;;;5.28;4.07;;;;;;;35.07;26.56;101268.88;5035824;28;20021;-81
2023/06/09 10:16:49;;;;;;;9.82;5.45;;;;;;;34.96;24.75;101266.09;5034615;28;20040;-80
2023/06/09 10:19:16;;;;;;;7.53;4.60;;;;;;;35.03;24.48;101271.34;5034095;28;20021;-82
2023/06/09 10:21:42;;;;;;;5.80;4.05;;;;;;;34.94;24.75;101260.03;5030281;28;20092;-82
2023/06/09 10:24:10;;;;;;;6.88;4.18;;;;;;;35.24;24.77;101263.97;5036472;28;20036;-82
2023/06/09 10:26:37;;;;;;;6.78;4.10;;;;;;;35.34;24.04;101271.44;5035721;28;20061;-81
2023/06/09 10:29:08;;;;;;;10.48;4.40;;;;;;;35.01;24.77;101268.03;5029996;28;20053;-80
2023/06/09 10:31:36;;;;;;;7.88;3.85;;;;;;;34.90;23.74;101264.41;5033189;28;20028;-83
2023/06/09 10:34:06;;;;;;;7.70;3.88;;;;;;;34.75;23.90;101261.59;5035752;28;20021;-82
2023/06/09 10:36:37;;;;;;;8.98;4.40;;;;;;;34.87;24.96;101267.69;5031004;28;20094;-82
2023/06/09 10:39:25;;;;;;;6.18;4.28;;;;;;;34.87;25.21;101262.19;5025632;28;20046;-82
2023/06/09 10:42:08;;;;;;;5.38;4.53;;;;;;;34.85;25.15;101261.63;5025293;28;20108;-82
2023/06/09 10:44:53;;;;;;;7.22;4.40;;;;;;;34.76;24.63;101263.28;5027151;28;20045;-82
2023/06/09 10:47:47;;;;;;;9.02;4.80;;;;;;;34.82;25.17;101257.50;5028786;28;20036;-83
2023/06/09 10:50:24;;;;;;;6.38;4.38;;;;;;;35.07;24.96;101253.13;5032611;28;20025;-83
2023/06/09 10:52:59;;;;;;;7.00;4.38;;;;;;;35.05;24.35;101251.75;5033091;28;20365;-83
2023/06/09 10:55:30;;;;;;;7.82;4.35;;;;;;;34.92;23.75;101251.16;5039867;28;20045;-82
2023/06/09 10:57:56;;;;;;;7.55;3.72;;;;;;;34.63;24.04;101250.75;5040063;28;20443;-83
2023/06/09 11:00:25;;;;;;;7.68;4.00;;;;;;;34.55;23.91;101251.28;5037060;28;20079;-82
2023/06/09 11:02:52;;;;;;;8.80;4.80;;;;;;;34.53;24.14;101239.69;5033054;28;20044;-82
2023/06/09 11:05:39;;;;;;;7.07;4.50;;;;;;;34.39;24.88;101217.28;5034120;28;20029;-82
2023/06/09 11:08:05;;;;;;;7.88;3.72;;;;;;;34.97;24.39;101234.59;5032564;28;20022;-82
2023/06/09 11:10:35;;;;;;;5.18;4.18;;;;;;;35.03;24.12;101241.81;5033987;28;20116;-82
2023/06/09 11:13:03;;;;;;;8.93;4.20;;;;;;;35.15;23.48;101236.03;5040955;28;20029;-82
2023/06/09 11:15:55;;;;;;;7.63;4.18;;;;;;;35.48;23.04;101233.88;5031579;28;20128;-83
2023/06/09 11:18:20;;;;;;;9.48;3.88;;;;;;;35.28;23.57;101233.88;5028616;28;20101;-81
2023/06/09 11:21:08;;;;;;;7.43;4.00;;;;;;;35.37;23.94;101233.06;5045910;28;20084;-82